KMTO/MTO METAR and TAF weather

Enter ICAO airport designator
Station Type Date Time Source
KMTO METAR 2021/09/28 03:53 UTC NOAA

KMTO 280353Z AUTO 21007KT 10SM CLR 22/15 A2990 RMK AO2 SLP117 T02220150 $


Station Type Date Time Source
KMTO Decoded METAR 2021/09/28 03:53 UTC NOAA

MATTOON/CHARLESTON COLES CO, IL, United States (KMTO) 39-28N 88-16W 214M
Sep 27, 2021 - 11:53 PM EDT / 2021.09.28 0353 UTC
Wind: from the SSW (210 degrees) at 8 MPH (7 KT):0
Visibility: 10 mile(s):0
Sky conditions: clear
Temperature: 72.0 F (22.2 C)
Dew Point: 59.0 F (15.0 C)
Relative Humidity: 63%
Pressure (altimeter): 29.9 in. Hg (1012 hPa)
ob: KMTO 280353Z AUTO 21007KT 10SM CLR 22/15 A2990 RMK AO2 SLP117 T02220150
cycle: 4

Station Type Date Time Source
KMTO TAF UTC NOAA

Error!

Example: see airport list